Casstown, OH

09:04 PM EDT on aprilie 18, 2015 (GMT -0400)
Springfield-Beckley Municipal | | Change Station
CLOSE
Current Station
Aeroport
Location: Springfield,
Elevation: 1050 ft
Nearby Weather Stations

Elev 1050 ft 39.84 °N, 83.84 °W | Updated 8 minutes ago

Cer în general noros
Cer în general noros
65 °F
Feels Like 65 °F
N
6
Vânt variabil Vânt from ENE

astăzi
High -- | Low -- °F
--% Chance of Precip.
Ieri
High -- | Low -- °F
Precip. -- inch
6:54 AM 8:17 PM
Lună Nouă, 0% visible
Presiunea 30.01 inch
Vizibilitatea 7.0 mile
Nori Cer senin
Punctul de rouă 51 °F
Umiditatea 60%
Precipitaţii 0.00 inch
Adâncimea zăpezii Not available.
UV 0 out of 12
Pollen 11.70 out of 12
Calitatea aerului Not available.
Flu Activity Regional
METAR KSGH 190056Z AUTO 07005KT 7SM CLR 18/11 A3002 RMK AO2 T01830105 SLP162

More Conditions Fewer Conditions

Presiunea 30.01 inch
Vizibilitatea 7.0 mile
Nori Cer senin
Punctul de rouă 51 °F
Umiditatea 60%
Precipitaţii 0.00 inch
Adâncimea zăpezii Not available.
UV 0 out of 12
Pollen 11.70 out of 12
Calitatea aerului Not available.
Flu Activity Regional
METAR KSGH 190056Z AUTO 07005KT 7SM CLR 18/11 A3002 RMK AO2 T01830105 SLP162

More Conditions Fewer Conditions

10-Day Weather Forecast

Almanac

Astronomie

Apr. 18, 2015 Răsărit Apus
Timpul Actual
Crepusculul Civil
Crepusculul nautic
Răsărit Astronomic
Luna
Durata zilei lumină
Lungimea zilei
Tomorrow will be .
, % of the Moon is Illuminated

Extremele de azi

State Highs State Lows

Community

WunderPhotos

Upload Photos

1,814,609 photos uploaded!

WunderBlogs® & News

Nearby

Calitatea aerului

  Calitatea aerului Index de calitate a aerului Poluat
Not available.

Adâncimea zapezii

Station Depth Elevation

Earthquake Activity

Oraş Distance Mag. Time & Date
Minimum magnitude displayed is 2.5.

Coastal Water Temperatures

Locul Temperatura

Stations

Nearby Weather Stations

Locaţia staţiei Temp Vânt rece Punctul de rouă Umiditatea Vânt Precip. Elev Actualizare Type